createdAt,value
2022-08-14T00:03:20.219Z,3.91
2022-08-14T00:08:45.174Z,3.86
2022-08-14T00:13:52.977Z,5.29
2022-08-14T00:19:18.826Z,5.74
2022-08-14T00:24:28.180Z,5.55
2022-08-14T00:29:40.588Z,5.54
2022-08-14T00:34:47.111Z,5.42
2022-08-14T00:39:52.928Z,5.67
2022-08-14T00:44:57.528Z,5.86
2022-08-14T00:50:02.667Z,5.67
2022-08-14T00:55:09.313Z,5.67
2022-08-14T01:00:34.382Z,5.54
2022-08-14T01:05:41.868Z,4.98
2022-08-14T01:10:57.698Z,5.05
2022-08-14T01:16:04.545Z,4.94
2022-08-14T01:21:17.752Z,5.15
2022-08-14T01:26:35.124Z,5.15
2022-08-14T01:31:45.437Z,6.57
2022-08-14T01:36:54.392Z,5.21
2022-08-14T01:42:01.342Z,5.11
2022-08-14T01:47:21.686Z,5.01
2022-08-14T01:52:34.277Z,5.68
2022-08-14T01:58:18.164Z,6.41
2022-08-14T02:03:13.668Z,6.45
2022-08-14T02:08:22.466Z,6.30
2022-08-14T02:13:39.563Z,6.41
2022-08-14T02:18:46.611Z,6.51
2022-08-14T02:23:53.559Z,6.13
2022-08-14T02:29:00.537Z,6.54
2022-08-14T02:34:19.947Z,6.57
2022-08-14T02:39:26.147Z,6.60
2022-08-14T02:44:32.299Z,6.32
2022-08-14T02:49:42.988Z,6.02
2022-08-14T02:54:46.376Z,6.05
2022-08-14T02:59:52.418Z,5.86
2022-08-14T03:04:55.996Z,5.89
2022-08-14T03:10:27.484Z,6.05
2022-08-14T03:15:25.442Z,6.34
2022-08-14T03:20:30.610Z,6.53
2022-08-14T03:25:37.690Z,6.68
2022-08-14T03:30:43.879Z,6.66
2022-08-14T03:36:07.603Z,7.26
2022-08-14T03:41:14.584Z,7.24
2022-08-14T03:46:38.730Z,6.89
2022-08-14T03:51:42.428Z,7.01
2022-08-14T03:56:46.547Z,6.70
2022-08-14T04:02:01.167Z,6.50
2022-08-14T04:07:04.789Z,6.57
2022-08-14T04:12:13.527Z,6.47
2022-08-14T04:17:18.839Z,6.64
2022-08-14T04:22:23.983Z,6.80
2022-08-14T04:27:27.989Z,6.94
2022-08-14T04:32:58.391Z,6.88
2022-08-14T04:38:38.411Z,7.05
2022-08-14T04:43:40.296Z,6.90
2022-08-14T04:48:51.394Z,7.37
2022-08-14T04:54:00.485Z,6.82
2022-08-14T04:59:09.971Z,7.15
2022-08-14T05:04:16.272Z,6.57
2022-08-14T05:09:24.571Z,7.04
2022-08-14T05:14:43.050Z,6.36
2022-08-14T05:21:04.934Z,6.41
2022-08-14T05:25:14.992Z,6.39
2022-08-14T05:30:20.272Z,6.09
2022-08-14T05:35:24.967Z,5.97
2022-08-14T05:40:29.850Z,5.59
2022-08-14T05:45:35.746Z,5.01
2022-08-14T05:50:41.465Z,4.49
2022-08-14T05:55:45.324Z,4.41
2022-08-14T06:00:50.095Z,4.38
2022-08-14T06:05:57.784Z,3.29
2022-08-14T06:11:05.902Z,2.68
2022-08-14T06:16:09.664Z,2.71
2022-08-14T06:21:17.512Z,2.83
2022-08-14T06:26:22.438Z,2.78
2022-08-14T06:31:25.786Z,2.35
2022-08-14T06:36:30.540Z,2.49
2022-08-14T06:41:57.244Z,2.13
2022-08-14T06:46:56.559Z,1.87
2022-08-14T06:52:01.055Z,1.77
2022-08-14T06:57:05.115Z,1.58
2022-08-14T07:02:29.218Z,1.58
2022-08-14T07:07:39.192Z,1.49
2022-08-14T07:13:01.015Z,1.61
2022-08-14T07:18:08.918Z,1.55
2022-08-14T07:23:20.693Z,0.91
2022-08-14T07:28:27.679Z,1.47
2022-08-14T07:33:35.571Z,1.90
2022-08-14T07:38:41.413Z,1.62
2022-08-14T07:43:55.250Z,1.48
2022-08-14T07:48:59.864Z,1.45
2022-08-14T07:54:10.911Z,1.52
2022-08-14T07:59:14.673Z,1.31
2022-08-14T08:04:24.280Z,0.92
2022-08-14T08:09:33.050Z,0.38
2022-08-14T08:14:55.608Z,-0.01
2022-08-14T08:19:59.795Z,0.18
2022-08-14T08:25:08.552Z,0.28
2022-08-14T08:30:17.006Z,-0.48
2022-08-14T08:35:23.784Z,-0.21
2022-08-14T08:40:30.961Z,-0.55
2022-08-14T08:45:35.914Z,-0.93
2022-08-14T08:55:45.048Z,-1.75
2022-08-14T09:00:54.459Z,-1.93
2022-08-14T09:06:01.094Z,-1.93
2022-08-14T09:11:19.486Z,-2.28
2022-08-14T09:16:28.273Z,-2.74
2022-08-14T09:21:32.181Z,-2.62
2022-08-14T09:26:37.627Z,-3.03
2022-08-14T09:31:52.737Z,-3.21
2022-08-14T09:37:18.309Z,-4.12
2022-08-14T09:42:49.849Z,-2.86
2022-08-14T09:47:56.230Z,-4.27
2022-08-14T09:53:04.025Z,-3.62
2022-08-14T09:58:19.654Z,-4.35
2022-08-14T10:03:33.234Z,-4.28
2022-08-14T10:08:45.243Z,-4.80
2022-08-14T10:13:58.913Z,-4.84
2022-08-14T10:19:05.250Z,-5.42
2022-08-14T10:24:11.171Z,-5.13
2022-08-14T10:29:32.171Z,-5.72
2022-08-14T10:34:38.767Z,-5.60
2022-08-14T10:40:01.461Z,118.77
2022-08-14T10:45:21.645Z,118.14
2022-08-14T10:50:32.749Z,-5.98
2022-08-14T10:55:45.566Z,118.45
2022-08-14T11:00:58.611Z,118.62
2022-08-14T11:06:14.802Z,118.06
2022-08-14T11:11:19.850Z,118.75
2022-08-14T11:16:27.146Z,118.42
2022-08-14T11:21:34.122Z,118.90
2022-08-14T11:26:38.985Z,118.40
2022-08-14T11:31:43.595Z,118.21
2022-08-14T11:37:02.530Z,118.79
2022-08-14T11:42:56.141Z,118.08
2022-08-14T11:48:13.041Z,117.50
2022-08-14T11:53:20.477Z,117.87
2022-08-14T11:58:28.498Z,117.98
2022-08-14T12:03:51.200Z,118.59
2022-08-14T12:08:59.784Z,118.32
2022-08-14T12:14:08.835Z,118.72
2022-08-14T12:19:51.460Z,118.05
2022-08-14T12:24:57.422Z,118.21
2022-08-14T12:30:01.339Z,118.15
2022-08-14T12:35:07.265Z,117.71
2022-08-14T12:40:19.636Z,117.37
2022-08-14T12:45:33.521Z,117.63
2022-08-14T12:50:40.838Z,117.04
2022-08-14T12:56:22.512Z,116.74
2022-08-14T13:01:20.759Z,116.88
2022-08-14T13:06:27.496Z,116.44
2022-08-14T13:11:36.820Z,116.17
2022-08-14T13:16:44.572Z,116.57
2022-08-14T13:22:04.986Z,117.50
2022-08-14T13:27:13.334Z,116.60
2022-08-14T13:32:18.255Z,115.77
2022-08-14T13:37:22.993Z,116.02
2022-08-14T13:42:31.650Z,115.87
2022-08-14T13:47:35.717Z,116.60
2022-08-14T13:52:52.765Z,116.51
2022-08-14T13:58:05.154Z,116.12
2022-08-14T14:03:09.279Z,116.57
2022-08-14T14:08:18.851Z,116.45
2022-08-14T14:13:41.875Z,115.82
2022-08-14T14:18:52.348Z,115.75
2022-08-14T14:23:58.265Z,115.73
2022-08-14T14:29:03.140Z,115.75
2022-08-14T14:34:12.700Z,115.89
2022-08-14T14:39:35.414Z,115.67
2022-08-14T14:44:42.441Z,115.82
2022-08-14T14:49:54.800Z,115.09
2022-08-14T14:55:00.151Z,114.87
2022-08-14T15:00:05.385Z,115.49
2022-08-14T15:05:09.731Z,115.41
2022-08-14T15:10:27.964Z,115.33
2022-08-14T15:15:36.947Z,115.03
2022-08-14T15:20:42.038Z,115.35
2022-08-14T15:25:52.284Z,115.17
2022-08-14T15:30:58.970Z,115.03
2022-08-14T15:36:04.155Z,115.01
2022-08-14T15:41:08.787Z,115.08
2022-08-14T15:46:41.126Z,115.15
2022-08-14T15:51:35.163Z,115.52
2022-08-14T15:56:46.673Z,114.96
2022-08-14T16:01:54.565Z,115.54
2022-08-14T16:06:58.162Z,115.55
2022-08-14T16:12:02.789Z,115.33
2022-08-14T16:17:09.304Z,115.51
2022-08-14T16:22:57.426Z,115.22
2022-08-14T16:33:05.697Z,115.78
2022-08-14T16:38:19.850Z,115.50
2022-08-14T16:40:24.432Z,115.26
2022-08-14T16:43:35.013Z,115.43
2022-08-14T16:48:58.005Z,115.44
2022-08-14T16:54:03.553Z,115.06
2022-08-14T16:59:30.492Z,116.15
2022-08-14T17:04:49.367Z,115.72
2022-08-14T17:09:54.728Z,116.13
2022-08-14T17:15:09.887Z,115.89
2022-08-14T17:20:39.217Z,115.96
2022-08-14T17:25:38.023Z,116.36
2022-08-14T17:30:51.382Z,116.50
2022-08-14T17:36:09.838Z,116.91
2022-08-14T17:41:23.728Z,116.75
2022-08-14T17:46:43.578Z,116.90
2022-08-14T17:52:07.807Z,117.39
2022-08-14T17:57:28.413Z,117.73
2022-08-14T18:02:38.250Z,117.89
2022-08-14T18:08:00.197Z,118.17
2022-08-14T18:13:05.467Z,118.18
2022-08-14T18:18:13.594Z,118.45
2022-08-14T18:23:19.340Z,118.41
2022-08-14T18:28:45.045Z,118.08
2022-08-14T18:33:56.234Z,118.08
2022-08-14T18:39:21.145Z,117.59
2022-08-14T18:45:12.940Z,117.96
2022-08-14T18:50:27.346Z,117.63
2022-08-14T18:55:54.037Z,117.66
2022-08-14T19:00:59.311Z,117.84
2022-08-14T19:06:05.930Z,118.28
2022-08-14T19:11:45.718Z,117.61
2022-08-14T19:16:54.242Z,117.17
2022-08-14T19:21:59.286Z,117.69
2022-08-14T19:27:19.302Z,117.81
2022-08-14T19:32:41.065Z,118.06
2022-08-14T19:37:48.452Z,118.24
2022-08-14T19:42:58.310Z,118.44
2022-08-14T19:48:02.732Z,118.45
2022-08-14T19:53:11.628Z,118.11
2022-08-14T19:58:26.023Z,118.37
2022-08-14T20:04:00.108Z,118.59
2022-08-14T20:11:07.902Z,118.64
2022-08-14T20:14:31.554Z,118.98
2022-08-14T20:19:41.364Z,-6.00
2022-08-14T20:24:47.410Z,-5.95
2022-08-14T20:30:34.256Z,-5.62
2022-08-14T20:35:36.466Z,-5.38
2022-08-14T20:40:50.547Z,-5.45
2022-08-14T20:45:53.780Z,-5.03
2022-08-14T20:50:58.796Z,-4.99
2022-08-14T20:56:28.909Z,-4.83
2022-08-14T21:01:36.611Z,-4.79
2022-08-14T21:07:22.952Z,-5.01
2022-08-14T21:12:04.944Z,-4.96
2022-08-14T21:17:09.559Z,-4.96
2022-08-14T21:22:13.354Z,-4.99
2022-08-14T21:27:21.666Z,-5.14
2022-08-14T21:32:47.127Z,-4.83
2022-08-14T21:37:54.427Z,-4.87
2022-08-14T21:42:59.038Z,-4.38
2022-08-14T21:48:10.739Z,-4.57
2022-08-14T21:53:15.313Z,-4.13
2022-08-14T21:58:53.919Z,-3.74
2022-08-14T22:03:44.949Z,-3.92
2022-08-14T22:08:52.944Z,-4.11
2022-08-14T22:13:56.560Z,-4.12
2022-08-14T22:19:11.207Z,-3.99
2022-08-14T22:24:25.941Z,-2.96
2022-08-14T22:29:42.735Z,-2.99
2022-08-14T22:34:48.665Z,-2.37
2022-08-14T22:40:53.925Z,-2.39
2022-08-14T22:45:15.217Z,-1.87
2022-08-14T22:50:31.016Z,-1.97
2022-08-14T22:55:36.493Z,-1.61
2022-08-14T23:00:40.456Z,-1.60
2022-08-14T23:05:51.778Z,-1.32
2022-08-14T23:10:56.113Z,-1.19
2022-08-14T23:15:59.148Z,-0.88
2022-08-14T23:21:03.981Z,-0.87
2022-08-14T23:26:49.570Z,-0.86
2022-08-14T23:31:36.183Z,-0.71
2022-08-14T23:36:53.039Z,-1.00
2022-08-14T23:42:02.526Z,-0.64
2022-08-14T23:47:11.967Z,-0.65
2022-08-14T23:52:55.804Z,-0.64
2022-08-14T23:58:00.659Z,-0.28
